sensor_id;sensor_type;location;lat;lon;timestamp;P1;durP1;ratioP1;P2;durP2;ratioP2
13816;SDS011;6979;52.116;5.286;2022-12-08T00:02:03;3.93;;;3.10;;
13816;SDS011;6979;52.116;5.286;2022-12-08T00:04:29;3.00;;;2.67;;
13816;SDS011;6979;52.116;5.286;2022-12-08T00:07:17;3.10;;;2.90;;
13816;SDS011;6979;52.116;5.286;2022-12-08T00:10:09;3.67;;;3.37;;
13816;SDS011;6979;52.116;5.286;2022-12-08T00:12:38;3.50;;;3.20;;
13816;SDS011;6979;52.116;5.286;2022-12-08T00:15:05;3.33;;;3.10;;
13816;SDS011;6979;52.116;5.286;2022-12-08T00:17:32;3.03;;;2.73;;
13816;SDS011;6979;52.116;5.286;2022-12-08T00:19:59;3.60;;;3.30;;
13816;SDS011;6979;52.116;5.286;2022-12-08T00:22:26;6.37;;;3.70;;
13816;SDS011;6979;52.116;5.286;2022-12-08T00:24:53;3.43;;;3.13;;
13816;SDS011;6979;52.116;5.286;2022-12-08T00:27:20;4.63;;;3.17;;
13816;SDS011;6979;52.116;5.286;2022-12-08T00:29:48;3.57;;;3.27;;
13816;SDS011;6979;52.116;5.286;2022-12-08T00:32:15;3.97;;;3.67;;
13816;SDS011;6979;52.116;5.286;2022-12-08T00:34:41;3.97;;;3.53;;
13816;SDS011;6979;52.116;5.286;2022-12-08T00:37:08;3.60;;;3.40;;
13816;SDS011;6979;52.116;5.286;2022-12-08T00:39:35;3.80;;;3.60;;
13816;SDS011;6979;52.116;5.286;2022-12-08T00:42:02;3.57;;;3.37;;
13816;SDS011;6979;52.116;5.286;2022-12-08T00:44:38;3.63;;;3.20;;
13816;SDS011;6979;52.116;5.286;2022-12-08T00:47:07;3.70;;;3.40;;
13816;SDS011;6979;52.116;5.286;2022-12-08T00:49:34;4.63;;;4.27;;
13816;SDS011;6979;52.116;5.286;2022-12-08T00:52:00;4.13;;;3.87;;
13816;SDS011;6979;52.116;5.286;2022-12-08T00:54:27;3.83;;;3.60;;
13816;SDS011;6979;52.116;5.286;2022-12-08T00:56:54;3.43;;;3.23;;
13816;SDS011;6979;52.116;5.286;2022-12-08T00:59:21;3.70;;;3.40;;
13816;SDS011;6979;52.116;5.286;2022-12-08T01:01:48;3.33;;;3.13;;
13816;SDS011;6979;52.116;5.286;2022-12-08T01:04:16;3.73;;;3.50;;
13816;SDS011;6979;52.116;5.286;2022-12-08T01:06:44;3.47;;;3.27;;
13816;SDS011;6979;52.116;5.286;2022-12-08T01:09:12;3.80;;;3.60;;
13816;SDS011;6979;52.116;5.286;2022-12-08T01:11:40;3.77;;;3.57;;
13816;SDS011;6979;52.116;5.286;2022-12-08T01:14:10;3.70;;;3.50;;
13816;SDS011;6979;52.116;5.286;2022-12-08T01:16:37;2.93;;;2.80;;
13816;SDS011;6979;52.116;5.286;2022-12-08T01:19:05;3.33;;;3.13;;
13816;SDS011;6979;52.116;5.286;2022-12-08T01:21:33;3.30;;;3.00;;
13816;SDS011;6979;52.116;5.286;2022-12-08T01:24:00;2.80;;;2.60;;
13816;SDS011;6979;52.116;5.286;2022-12-08T01:26:27;2.83;;;2.73;;
13816;SDS011;6979;52.116;5.286;2022-12-08T01:28:54;2.63;;;2.43;;
13816;SDS011;6979;52.116;5.286;2022-12-08T01:31:21;2.73;;;2.30;;
13816;SDS011;6979;52.116;5.286;2022-12-08T01:33:49;2.03;;;1.93;;
13816;SDS011;6979;52.116;5.286;2022-12-08T01:36:17;1.97;;;1.83;;
13816;SDS011;6979;52.116;5.286;2022-12-08T01:38:47;2.00;;;1.90;;
13816;SDS011;6979;52.116;5.286;2022-12-08T01:41:14;4.37;;;1.57;;
13816;SDS011;6979;52.116;5.286;2022-12-08T01:43:50;1.90;;;1.80;;
13816;SDS011;6979;52.116;5.286;2022-12-08T01:46:21;1.67;;;1.57;;
13816;SDS011;6979;52.116;5.286;2022-12-08T01:48:49;2.10;;;1.40;;
13816;SDS011;6979;52.116;5.286;2022-12-08T01:51:18;1.70;;;1.60;;
13816;SDS011;6979;52.116;5.286;2022-12-08T01:53:47;1.73;;;1.63;;
13816;SDS011;6979;52.116;5.286;2022-12-08T01:56:17;1.63;;;1.53;;
13816;SDS011;6979;52.116;5.286;2022-12-08T01:58:48;1.70;;;1.60;;
13816;SDS011;6979;52.116;5.286;2022-12-08T02:01:19;1.70;;;1.60;;
13816;SDS011;6979;52.116;5.286;2022-12-08T02:03:46;1.60;;;1.50;;
13816;SDS011;6979;52.116;5.286;2022-12-08T02:06:16;1.90;;;1.80;;
13816;SDS011;6979;52.116;5.286;2022-12-08T02:08:44;2.50;;;2.30;;
13816;SDS011;6979;52.116;5.286;2022-12-08T02:11:14;2.70;;;2.50;;
13816;SDS011;6979;52.116;5.286;2022-12-08T02:13:41;3.17;;;2.97;;
13816;SDS011;6979;52.116;5.286;2022-12-08T02:16:11;3.67;;;3.00;;
13816;SDS011;6979;52.116;5.286;2022-12-08T02:18:53;3.63;;;3.43;;
13816;SDS011;6979;52.116;5.286;2022-12-08T02:21:27;3.83;;;3.40;;
13816;SDS011;6979;52.116;5.286;2022-12-08T02:23:58;3.80;;;3.50;;
13816;SDS011;6979;52.116;5.286;2022-12-08T02:26:56;3.93;;;3.63;;
13816;SDS011;6979;52.116;5.286;2022-12-08T02:29:44;3.57;;;3.30;;
13816;SDS011;6979;52.116;5.286;2022-12-08T02:32:29;4.37;;;4.10;;
13816;SDS011;6979;52.116;5.286;2022-12-08T02:35:22;4.47;;;4.13;;
13816;SDS011;6979;52.116;5.286;2022-12-08T02:37:55;5.83;;;4.63;;
13816;SDS011;6979;52.116;5.286;2022-12-08T02:40:31;5.10;;;4.00;;
13816;SDS011;6979;52.116;5.286;2022-12-08T02:43:02;4.00;;;3.70;;
13816;SDS011;6979;52.116;5.286;2022-12-08T02:45:34;4.10;;;3.70;;
13816;SDS011;6979;52.116;5.286;2022-12-08T02:48:04;3.30;;;3.10;;
13816;SDS011;6979;52.116;5.286;2022-12-08T02:50:35;3.67;;;3.40;;
13816;SDS011;6979;52.116;5.286;2022-12-08T02:53:01;3.53;;;3.33;;
13816;SDS011;6979;52.116;5.286;2022-12-08T02:55:29;2.87;;;2.77;;
13816;SDS011;6979;52.116;5.286;2022-12-08T02:58:07;3.43;;;3.23;;
13816;SDS011;6979;52.116;5.286;2022-12-08T03:00:47;3.10;;;2.90;;
13816;SDS011;6979;52.116;5.286;2022-12-08T03:03:26;3.20;;;3.00;;
13816;SDS011;6979;52.116;5.286;2022-12-08T03:06:03;3.70;;;2.90;;
13816;SDS011;6979;52.116;5.286;2022-12-08T03:08:36;3.00;;;2.80;;
13816;SDS011;6979;52.116;5.286;2022-12-08T03:11:10;2.97;;;2.77;;
13816;SDS011;6979;52.116;5.286;2022-12-08T03:13:44;3.90;;;2.80;;
13816;SDS011;6979;52.116;5.286;2022-12-08T03:16:15;2.60;;;2.40;;
13816;SDS011;6979;52.116;5.286;2022-12-08T03:18:46;3.03;;;2.80;;
13816;SDS011;6979;52.116;5.286;2022-12-08T03:21:18;1.93;;;1.80;;
13816;SDS011;6979;52.116;5.286;2022-12-08T03:23:47;2.57;;;1.70;;
13816;SDS011;6979;52.116;5.286;2022-12-08T03:26:17;2.30;;;2.10;;
13816;SDS011;6979;52.116;5.286;2022-12-08T03:28:48;1.70;;;1.60;;
13816;SDS011;6979;52.116;5.286;2022-12-08T03:31:15;2.80;;;1.70;;
13816;SDS011;6979;52.116;5.286;2022-12-08T03:33:44;1.60;;;1.50;;
13816;SDS011;6979;52.116;5.286;2022-12-08T03:36:18;1.20;;;1.20;;
13816;SDS011;6979;52.116;5.286;2022-12-08T03:38:47;1.87;;;1.50;;
13816;SDS011;6979;52.116;5.286;2022-12-08T03:41:17;1.67;;;1.37;;
13816;SDS011;6979;52.116;5.286;2022-12-08T03:43:45;2.00;;;1.37;;
13816;SDS011;6979;52.116;5.286;2022-12-08T03:46:13;1.43;;;1.33;;
13816;SDS011;6979;52.116;5.286;2022-12-08T03:48:40;1.27;;;1.17;;
13816;SDS011;6979;52.116;5.286;2022-12-08T03:51:07;1.37;;;1.07;;
13816;SDS011;6979;52.116;5.286;2022-12-08T03:53:36;2.50;;;1.30;;
13816;SDS011;6979;52.116;5.286;2022-12-08T03:56:03;0.93;;;0.90;;
13816;SDS011;6979;52.116;5.286;2022-12-08T03:58:31;2.50;;;0.97;;
13816;SDS011;6979;52.116;5.286;2022-12-08T04:00:58;0.80;;;0.80;;
13816;SDS011;6979;52.116;5.286;2022-12-08T04:03:25;1.73;;;0.70;;
13816;SDS011;6979;52.116;5.286;2022-12-08T04:05:51;0.67;;;0.60;;
13816;SDS011;6979;52.116;5.286;2022-12-08T04:08:18;2.43;;;0.50;;
13816;SDS011;6979;52.116;5.286;2022-12-08T04:10:46;0.50;;;0.50;;
13816;SDS011;6979;52.116;5.286;2022-12-08T04:13:13;2.27;;;0.70;;
13816;SDS011;6979;52.116;5.286;2022-12-08T04:15:43;2.97;;;1.10;;
13816;SDS011;6979;52.116;5.286;2022-12-08T04:18:10;1.07;;;0.60;;
13816;SDS011;6979;52.116;5.286;2022-12-08T04:20:37;0.73;;;0.60;;
13816;SDS011;6979;52.116;5.286;2022-12-08T04:23:05;1.40;;;0.63;;
13816;SDS011;6979;52.116;5.286;2022-12-08T04:25:32;0.80;;;0.80;;
13816;SDS011;6979;52.116;5.286;2022-12-08T04:28:01;0.77;;;0.73;;
13816;SDS011;6979;52.116;5.286;2022-12-08T04:30:28;2.37;;;1.10;;
13816;SDS011;6979;52.116;5.286;2022-12-08T04:32:55;1.20;;;1.10;;
13816;SDS011;6979;52.116;5.286;2022-12-08T04:35:22;1.23;;;1.23;;
13816;SDS011;6979;52.116;5.286;2022-12-08T04:37:49;1.70;;;1.60;;
13816;SDS011;6979;52.116;5.286;2022-12-08T04:40:17;2.50;;;2.30;;
13816;SDS011;6979;52.116;5.286;2022-12-08T04:42:44;2.27;;;2.17;;
13816;SDS011;6979;52.116;5.286;2022-12-08T04:45:12;2.03;;;1.87;;
13816;SDS011;6979;52.116;5.286;2022-12-08T04:47:40;2.30;;;2.20;;
13816;SDS011;6979;52.116;5.286;2022-12-08T04:50:07;2.10;;;2.00;;
13816;SDS011;6979;52.116;5.286;2022-12-08T04:52:34;2.00;;;1.90;;
13816;SDS011;6979;52.116;5.286;2022-12-08T04:55:01;1.87;;;1.77;;
13816;SDS011;6979;52.116;5.286;2022-12-08T04:57:29;1.37;;;1.37;;
13816;SDS011;6979;52.116;5.286;2022-12-08T04:59:56;1.67;;;1.27;;
13816;SDS011;6979;52.116;5.286;2022-12-08T05:02:24;1.50;;;1.40;;
13816;SDS011;6979;52.116;5.286;2022-12-08T05:04:51;1.97;;;1.13;;
13816;SDS011;6979;52.116;5.286;2022-12-08T05:07:17;1.23;;;1.17;;
13816;SDS011;6979;52.116;5.286;2022-12-08T05:09:44;2.67;;;0.90;;
13816;SDS011;6979;52.116;5.286;2022-12-08T05:12:11;0.80;;;0.80;;
13816;SDS011;6979;52.116;5.286;2022-12-08T05:14:38;0.93;;;0.70;;
13816;SDS011;6979;52.116;5.286;2022-12-08T05:17:05;0.50;;;0.47;;
13816;SDS011;6979;52.116;5.286;2022-12-08T05:19:33;3.60;;;0.93;;
13816;SDS011;6979;52.116;5.286;2022-12-08T05:22:00;1.20;;;0.87;;
13816;SDS011;6979;52.116;5.286;2022-12-08T05:24:27;0.60;;;0.60;;
13816;SDS011;6979;52.116;5.286;2022-12-08T05:26:53;0.97;;;0.40;;
13816;SDS011;6979;52.116;5.286;2022-12-08T05:29:20;0.50;;;0.30;;
13816;SDS011;6979;52.116;5.286;2022-12-08T05:31:47;1.13;;;0.47;;
13816;SDS011;6979;52.116;5.286;2022-12-08T05:34:14;0.40;;;0.40;;
13816;SDS011;6979;52.116;5.286;2022-12-08T05:36:42;1.37;;;0.77;;
13816;SDS011;6979;52.116;5.286;2022-12-08T05:39:10;0.87;;;0.37;;
13816;SDS011;6979;52.116;5.286;2022-12-08T05:41:37;0.57;;;0.40;;
13816;SDS011;6979;52.116;5.286;2022-12-08T05:44:04;1.50;;;0.90;;
13816;SDS011;6979;52.116;5.286;2022-12-08T05:46:31;1.40;;;0.70;;
13816;SDS011;6979;52.116;5.286;2022-12-08T05:48:59;2.13;;;0.67;;
13816;SDS011;6979;52.116;5.286;2022-12-08T05:51:26;2.17;;;0.80;;
13816;SDS011;6979;52.116;5.286;2022-12-08T05:53:54;0.60;;;0.60;;
13816;SDS011;6979;52.116;5.286;2022-12-08T05:56:22;0.50;;;0.50;;
13816;SDS011;6979;52.116;5.286;2022-12-08T05:58:49;0.50;;;0.50;;
13816;SDS011;6979;52.116;5.286;2022-12-08T06:01:17;0.33;;;0.33;;
13816;SDS011;6979;52.116;5.286;2022-12-08T06:03:45;0.47;;;0.40;;
13816;SDS011;6979;52.116;5.286;2022-12-08T06:06:12;0.50;;;0.50;;
13816;SDS011;6979;52.116;5.286;2022-12-08T06:08:39;0.50;;;0.50;;
13816;SDS011;6979;52.116;5.286;2022-12-08T06:11:08;0.60;;;0.60;;
13816;SDS011;6979;52.116;5.286;2022-12-08T06:13:35;0.47;;;0.47;;
13816;SDS011;6979;52.116;5.286;2022-12-08T06:16:02;1.90;;;0.70;;
13816;SDS011;6979;52.116;5.286;2022-12-08T06:18:30;1.43;;;0.70;;
13816;SDS011;6979;52.116;5.286;2022-12-08T06:21:00;0.70;;;0.70;;
13816;SDS011;6979;52.116;5.286;2022-12-08T06:23:28;0.97;;;0.87;;
13816;SDS011;6979;52.116;5.286;2022-12-08T06:25:58;1.00;;;1.00;;
13816;SDS011;6979;52.116;5.286;2022-12-08T06:28:27;2.50;;;1.03;;
13816;SDS011;6979;52.116;5.286;2022-12-08T06:30:54;0.57;;;0.57;;
13816;SDS011;6979;52.116;5.286;2022-12-08T06:33:21;0.60;;;0.50;;
13816;SDS011;6979;52.116;5.286;2022-12-08T06:35:49;0.60;;;0.57;;
13816;SDS011;6979;52.116;5.286;2022-12-08T06:38:16;1.13;;;0.50;;
13816;SDS011;6979;52.116;5.286;2022-12-08T06:40:43;0.70;;;0.70;;
13816;SDS011;6979;52.116;5.286;2022-12-08T06:43:09;1.27;;;0.50;;
13816;SDS011;6979;52.116;5.286;2022-12-08T06:45:39;0.60;;;0.60;;
13816;SDS011;6979;52.116;5.286;2022-12-08T06:48:06;0.80;;;0.80;;
13816;SDS011;6979;52.116;5.286;2022-12-08T06:50:33;1.67;;;0.80;;
13816;SDS011;6979;52.116;5.286;2022-12-08T06:53:00;2.40;;;1.73;;
13816;SDS011;6979;52.116;5.286;2022-12-08T06:55:27;1.30;;;1.20;;
13816;SDS011;6979;52.116;5.286;2022-12-08T06:57:54;1.60;;;1.50;;
13816;SDS011;6979;52.116;5.286;2022-12-08T07:00:20;2.80;;;1.50;;
13816;SDS011;6979;52.116;5.286;2022-12-08T07:02:49;1.60;;;1.50;;
13816;SDS011;6979;52.116;5.286;2022-12-08T07:05:16;2.20;;;2.00;;
13816;SDS011;6979;52.116;5.286;2022-12-08T07:07:43;2.13;;;1.90;;
13816;SDS011;6979;52.116;5.286;2022-12-08T07:10:10;1.80;;;1.70;;
13816;SDS011;6979;52.116;5.286;2022-12-08T07:12:37;1.90;;;1.70;;
13816;SDS011;6979;52.116;5.286;2022-12-08T07:15:04;1.70;;;1.60;;
13816;SDS011;6979;52.116;5.286;2022-12-08T07:17:32;1.33;;;1.33;;
13816;SDS011;6979;52.116;5.286;2022-12-08T07:20:01;1.37;;;1.37;;
13816;SDS011;6979;52.116;5.286;2022-12-08T07:22:28;1.10;;;1.10;;
13816;SDS011;6979;52.116;5.286;2022-12-08T07:24:55;1.50;;;1.40;;
13816;SDS011;6979;52.116;5.286;2022-12-08T07:27:22;1.30;;;1.30;;
13816;SDS011;6979;52.116;5.286;2022-12-08T07:29:49;1.30;;;1.20;;
13816;SDS011;6979;52.116;5.286;2022-12-08T07:32:16;1.13;;;1.03;;
13816;SDS011;6979;52.116;5.286;2022-12-08T07:34:43;2.27;;;0.90;;
13816;SDS011;6979;52.116;5.286;2022-12-08T07:37:11;1.20;;;1.10;;
13816;SDS011;6979;52.116;5.286;2022-12-08T07:39:38;1.17;;;1.17;;
13816;SDS011;6979;52.116;5.286;2022-12-08T07:42:05;1.40;;;0.80;;
13816;SDS011;6979;52.116;5.286;2022-12-08T07:44:32;1.00;;;1.00;;
13816;SDS011;6979;52.116;5.286;2022-12-08T07:46:58;0.90;;;0.87;;
13816;SDS011;6979;52.116;5.286;2022-12-08T07:49:25;0.70;;;0.70;;
13816;SDS011;6979;52.116;5.286;2022-12-08T07:51:52;3.30;;;1.27;;
13816;SDS011;6979;52.116;5.286;2022-12-08T07:54:20;0.77;;;0.77;;
13816;SDS011;6979;52.116;5.286;2022-12-08T07:56:47;0.77;;;0.77;;
13816;SDS011;6979;52.116;5.286;2022-12-08T07:59:14;1.13;;;1.03;;
13816;SDS011;6979;52.116;5.286;2022-12-08T08:01:42;0.80;;;0.80;;
13816;SDS011;6979;52.116;5.286;2022-12-08T08:04:11;0.77;;;0.70;;
13816;SDS011;6979;52.116;5.286;2022-12-08T08:06:38;0.77;;;0.77;;
13816;SDS011;6979;52.116;5.286;2022-12-08T08:09:05;1.60;;;1.30;;
13816;SDS011;6979;52.116;5.286;2022-12-08T08:11:34;1.50;;;0.80;;
13816;SDS011;6979;52.116;5.286;2022-12-08T08:14:01;0.97;;;0.90;;
13816;SDS011;6979;52.116;5.286;2022-12-08T08:16:28;1.70;;;0.80;;
13816;SDS011;6979;52.116;5.286;2022-12-08T08:18:55;0.80;;;0.80;;
13816;SDS011;6979;52.116;5.286;2022-12-08T08:21:22;2.43;;;1.17;;
13816;SDS011;6979;52.116;5.286;2022-12-08T08:23:49;0.93;;;0.83;;
13816;SDS011;6979;52.116;5.286;2022-12-08T08:26:15;0.70;;;0.70;;
13816;SDS011;6979;52.116;5.286;2022-12-08T08:28:44;0.60;;;0.60;;
13816;SDS011;6979;52.116;5.286;2022-12-08T08:31:12;0.70;;;0.70;;
13816;SDS011;6979;52.116;5.286;2022-12-08T08:33:39;0.67;;;0.67;;
13816;SDS011;6979;52.116;5.286;2022-12-08T08:36:06;0.60;;;0.60;;
13816;SDS011;6979;52.116;5.286;2022-12-08T08:38:34;0.77;;;0.77;;
13816;SDS011;6979;52.116;5.286;2022-12-08T08:41:06;0.93;;;0.60;;
13816;SDS011;6979;52.116;5.286;2022-12-08T08:43:33;0.60;;;0.60;;
13816;SDS011;6979;52.116;5.286;2022-12-08T08:46:02;2.53;;;0.80;;
13816;SDS011;6979;52.116;5.286;2022-12-08T08:48:30;0.50;;;0.50;;
13816;SDS011;6979;52.116;5.286;2022-12-08T08:50:58;1.17;;;0.80;;
13816;SDS011;6979;52.116;5.286;2022-12-08T08:53:32;0.83;;;0.83;;
13816;SDS011;6979;52.116;5.286;2022-12-08T08:55:59;0.80;;;0.80;;
13816;SDS011;6979;52.116;5.286;2022-12-08T08:58:29;2.37;;;1.43;;
13816;SDS011;6979;52.116;5.286;2022-12-08T09:00:56;1.57;;;1.47;;
13816;SDS011;6979;52.116;5.286;2022-12-08T09:03:24;1.10;;;1.00;;
13816;SDS011;6979;52.116;5.286;2022-12-08T09:05:51;1.13;;;1.00;;
13816;SDS011;6979;52.116;5.286;2022-12-08T09:08:17;1.40;;;1.10;;
13816;SDS011;6979;52.116;5.286;2022-12-08T09:10:44;1.23;;;1.13;;
13816;SDS011;6979;52.116;5.286;2022-12-08T09:13:11;1.20;;;1.07;;
13816;SDS011;6979;52.116;5.286;2022-12-08T09:15:38;1.00;;;1.00;;
13816;SDS011;6979;52.116;5.286;2022-12-08T09:18:05;1.80;;;1.20;;
13816;SDS011;6979;52.116;5.286;2022-12-08T09:20:33;1.27;;;1.23;;
13816;SDS011;6979;52.116;5.286;2022-12-08T09:23:00;1.70;;;1.00;;
13816;SDS011;6979;52.116;5.286;2022-12-08T09:25:28;1.50;;;1.40;;
13816;SDS011;6979;52.116;5.286;2022-12-08T09:27:55;1.13;;;1.13;;
13816;SDS011;6979;52.116;5.286;2022-12-08T09:30:22;1.07;;;1.03;;
13816;SDS011;6979;52.116;5.286;2022-12-08T09:32:56;1.17;;;1.13;;
13816;SDS011;6979;52.116;5.286;2022-12-08T09:35:22;1.37;;;1.37;;
13816;SDS011;6979;52.116;5.286;2022-12-08T09:37:51;0.97;;;0.90;;
13816;SDS011;6979;52.116;5.286;2022-12-08T09:40:24;1.10;;;1.10;;
13816;SDS011;6979;52.116;5.286;2022-12-08T09:42:53;1.20;;;1.10;;
13816;SDS011;6979;52.116;5.286;2022-12-08T09:45:26;1.17;;;1.10;;
13816;SDS011;6979;52.116;5.286;2022-12-08T09:47:58;1.23;;;1.13;;
13816;SDS011;6979;52.116;5.286;2022-12-08T09:50:31;1.33;;;1.23;;
13816;SDS011;6979;52.116;5.286;2022-12-08T09:53:03;4.13;;;1.60;;
13816;SDS011;6979;52.116;5.286;2022-12-08T09:55:36;1.77;;;1.30;;
13816;SDS011;6979;52.116;5.286;2022-12-08T09:58:09;1.90;;;1.40;;
13816;SDS011;6979;52.116;5.286;2022-12-08T10:00:44;1.53;;;1.13;;
13816;SDS011;6979;52.116;5.286;2022-12-08T10:03:11;3.07;;;1.33;;
13816;SDS011;6979;52.116;5.286;2022-12-08T10:05:40;1.60;;;1.37;;
13816;SDS011;6979;52.116;5.286;2022-12-08T10:08:16;2.80;;;1.20;;
13816;SDS011;6979;52.116;5.286;2022-12-08T10:10:46;1.40;;;1.30;;
13816;SDS011;6979;52.116;5.286;2022-12-08T10:13:19;1.57;;;1.00;;
13816;SDS011;6979;52.116;5.286;2022-12-08T10:15:52;1.20;;;1.00;;
13816;SDS011;6979;52.116;5.286;2022-12-08T10:18:29;0.87;;;0.87;;
13816;SDS011;6979;52.116;5.286;2022-12-08T10:21:04;1.30;;;1.20;;
13816;SDS011;6979;52.116;5.286;2022-12-08T10:23:43;1.40;;;0.70;;
13816;SDS011;6979;52.116;5.286;2022-12-08T10:26:14;0.90;;;0.87;;
13816;SDS011;6979;52.116;5.286;2022-12-08T10:28:42;0.80;;;0.80;;
13816;SDS011;6979;52.116;5.286;2022-12-08T10:31:13;1.47;;;1.30;;
13816;SDS011;6979;52.116;5.286;2022-12-08T10:33:42;0.70;;;0.70;;
13816;SDS011;6979;52.116;5.286;2022-12-08T10:36:09;0.80;;;0.70;;
13816;SDS011;6979;52.116;5.286;2022-12-08T10:38:37;1.00;;;1.00;;
13816;SDS011;6979;52.116;5.286;2022-12-08T10:41:10;1.03;;;0.93;;
13816;SDS011;6979;52.116;5.286;2022-12-08T10:43:42;0.70;;;0.70;;
13816;SDS011;6979;52.116;5.286;2022-12-08T10:46:12;0.80;;;0.80;;
13816;SDS011;6979;52.116;5.286;2022-12-08T10:48:48;0.50;;;0.40;;
13816;SDS011;6979;52.116;5.286;2022-12-08T10:54:02;1.33;;;0.80;;
13816;SDS011;6979;52.116;5.286;2022-12-08T10:56:31;0.97;;;0.97;;
13816;SDS011;6979;52.116;5.286;2022-12-08T10:59:09;1.90;;;0.90;;
13816;SDS011;6979;52.116;5.286;2022-12-08T11:01:39;0.70;;;0.70;;
13816;SDS011;6979;52.116;5.286;2022-12-08T11:04:11;0.93;;;0.93;;
13816;SDS011;6979;52.116;5.286;2022-12-08T11:06:42;0.67;;;0.63;;
13816;SDS011;6979;52.116;5.286;2022-12-08T11:09:21;0.70;;;0.70;;
13816;SDS011;6979;52.116;5.286;2022-12-08T11:11:52;0.60;;;0.60;;
13816;SDS011;6979;52.116;5.286;2022-12-08T11:14:22;0.70;;;0.70;;
13816;SDS011;6979;52.116;5.286;2022-12-08T11:16:52;0.80;;;0.80;;
13816;SDS011;6979;52.116;5.286;2022-12-08T11:19:20;1.33;;;0.97;;
13816;SDS011;6979;52.116;5.286;2022-12-08T11:21:51;1.20;;;1.20;;
13816;SDS011;6979;52.116;5.286;2022-12-08T11:24:20;1.40;;;1.30;;
13816;SDS011;6979;52.116;5.286;2022-12-08T11:26:52;1.50;;;1.40;;
13816;SDS011;6979;52.116;5.286;2022-12-08T11:29:23;1.93;;;1.80;;
13816;SDS011;6979;52.116;5.286;2022-12-08T11:31:51;1.63;;;1.40;;
13816;SDS011;6979;52.116;5.286;2022-12-08T11:34:23;2.63;;;1.80;;
13816;SDS011;6979;52.116;5.286;2022-12-08T11:36:56;2.40;;;1.80;;
13816;SDS011;6979;52.116;5.286;2022-12-08T11:39:24;2.00;;;1.80;;
13816;SDS011;6979;52.116;5.286;2022-12-08T11:41:54;1.90;;;1.80;;
13816;SDS011;6979;52.116;5.286;2022-12-08T11:44:27;2.07;;;1.90;;
13816;SDS011;6979;52.116;5.286;2022-12-08T11:46:59;1.50;;;1.40;;
13816;SDS011;6979;52.116;5.286;2022-12-08T11:49:32;2.20;;;2.00;;
13816;SDS011;6979;52.116;5.286;2022-12-08T11:52:02;2.00;;;1.90;;
13816;SDS011;6979;52.116;5.286;2022-12-08T11:54:39;2.10;;;2.00;;
13816;SDS011;6979;52.116;5.286;2022-12-08T11:57:13;1.80;;;1.70;;
13816;SDS011;6979;52.116;5.286;2022-12-08T11:59:44;2.47;;;2.27;;
13816;SDS011;6979;52.116;5.286;2022-12-08T12:02:16;2.53;;;2.33;;
13816;SDS011;6979;52.116;5.286;2022-12-08T12:04:46;2.00;;;1.90;;
13816;SDS011;6979;52.116;5.286;2022-12-08T12:07:27;3.43;;;2.67;;
13816;SDS011;6979;52.116;5.286;2022-12-08T12:13:08;2.23;;;2.13;;
13816;SDS011;6979;52.116;5.286;2022-12-08T12:16:06;2.30;;;2.20;;
13816;SDS011;6979;52.116;5.286;2022-12-08T12:18:56;2.47;;;2.37;;
13816;SDS011;6979;52.116;5.286;2022-12-08T12:21:25;2.53;;;2.33;;
13816;SDS011;6979;52.116;5.286;2022-12-08T12:23:58;2.83;;;2.50;;
13816;SDS011;6979;52.116;5.286;2022-12-08T12:26:29;2.00;;;1.90;;
13816;SDS011;6979;52.116;5.286;2022-12-08T12:29:00;2.13;;;2.03;;
13816;SDS011;6979;52.116;5.286;2022-12-08T12:31:30;1.80;;;1.70;;
13816;SDS011;6979;52.116;5.286;2022-12-08T12:34:05;2.17;;;2.07;;
13816;SDS011;6979;52.116;5.286;2022-12-08T12:36:43;2.53;;;1.80;;
13816;SDS011;6979;52.116;5.286;2022-12-08T12:39:16;1.80;;;1.70;;
13816;SDS011;6979;52.116;5.286;2022-12-08T12:41:46;1.63;;;1.53;;
13816;SDS011;6979;52.116;5.286;2022-12-08T12:47:12;1.83;;;1.70;;
13816;SDS011;6979;52.116;5.286;2022-12-08T12:53:01;4.80;;;3.77;;
13816;SDS011;6979;52.116;5.286;2022-12-08T12:58:20;3.67;;;3.37;;
13816;SDS011;6979;52.116;5.286;2022-12-08T13:04:10;1.70;;;1.60;;
13816;SDS011;6979;52.116;5.286;2022-12-08T13:06:38;1.83;;;1.73;;
13816;SDS011;6979;52.116;5.286;2022-12-08T13:09:18;1.47;;;1.37;;
13816;SDS011;6979;52.116;5.286;2022-12-08T13:11:51;1.10;;;1.10;;
13816;SDS011;6979;52.116;5.286;2022-12-08T13:14:34;1.50;;;1.40;;
13816;SDS011;6979;52.116;5.286;2022-12-08T13:17:04;2.03;;;1.87;;
13816;SDS011;6979;52.116;5.286;2022-12-08T13:19:37;1.70;;;1.47;;
13816;SDS011;6979;52.116;5.286;2022-12-08T13:31:41;1.30;;;1.30;;
13816;SDS011;6979;52.116;5.286;2022-12-08T13:34:11;2.00;;;1.90;;
13816;SDS011;6979;52.116;5.286;2022-12-08T13:39:45;2.47;;;2.27;;
13816;SDS011;6979;52.116;5.286;2022-12-08T13:42:18;2.20;;;2.10;;
13816;SDS011;6979;52.116;5.286;2022-12-08T13:44:50;2.03;;;1.93;;
13816;SDS011;6979;52.116;5.286;2022-12-08T13:47:21;1.80;;;1.70;;
13816;SDS011;6979;52.116;5.286;2022-12-08T13:49:54;2.30;;;2.20;;
13816;SDS011;6979;52.116;5.286;2022-12-08T13:52:30;2.17;;;2.07;;
13816;SDS011;6979;52.116;5.286;2022-12-08T13:54:59;2.20;;;2.10;;
13816;SDS011;6979;52.116;5.286;2022-12-08T13:57:29;2.27;;;2.00;;
13816;SDS011;6979;52.116;5.286;2022-12-08T13:59:58;2.67;;;2.53;;
13816;SDS011;6979;52.116;5.286;2022-12-08T14:02:27;3.40;;;1.70;;
13816;SDS011;6979;52.116;5.286;2022-12-08T14:04:58;2.50;;;2.23;;
13816;SDS011;6979;52.116;5.286;2022-12-08T14:07:25;3.03;;;2.73;;
13816;SDS011;6979;52.116;5.286;2022-12-08T14:09:53;2.47;;;2.27;;
13816;SDS011;6979;52.116;5.286;2022-12-08T14:12:21;2.30;;;2.20;;
13816;SDS011;6979;52.116;5.286;2022-12-08T14:14:50;2.20;;;2.10;;
13816;SDS011;6979;52.116;5.286;2022-12-08T14:17:21;2.30;;;2.20;;
13816;SDS011;6979;52.116;5.286;2022-12-08T14:19:52;2.40;;;2.20;;
13816;SDS011;6979;52.116;5.286;2022-12-08T14:22:30;2.07;;;1.97;;
13816;SDS011;6979;52.116;5.286;2022-12-08T14:25:00;2.47;;;2.23;;
13816;SDS011;6979;52.116;5.286;2022-12-08T14:27:31;2.40;;;2.23;;
13816;SDS011;6979;52.116;5.286;2022-12-08T14:29:59;2.83;;;2.63;;
13816;SDS011;6979;52.116;5.286;2022-12-08T14:32:27;2.30;;;2.10;;
13816;SDS011;6979;52.116;5.286;2022-12-08T14:34:58;2.40;;;2.20;;
13816;SDS011;6979;52.116;5.286;2022-12-08T14:37:27;4.00;;;3.60;;
13816;SDS011;6979;52.116;5.286;2022-12-08T14:39:56;3.20;;;3.00;;
13816;SDS011;6979;52.116;5.286;2022-12-08T14:42:27;2.50;;;2.33;;
13816;SDS011;6979;52.116;5.286;2022-12-08T14:44:56;2.30;;;2.20;;
13816;SDS011;6979;52.116;5.286;2022-12-08T14:47:27;2.40;;;1.93;;
13816;SDS011;6979;52.116;5.286;2022-12-08T14:49:55;2.90;;;2.70;;
13816;SDS011;6979;52.116;5.286;2022-12-08T14:52:23;3.47;;;3.17;;
13816;SDS011;6979;52.116;5.286;2022-12-08T14:54:50;2.73;;;2.53;;
13816;SDS011;6979;52.116;5.286;2022-12-08T14:57:18;3.60;;;3.30;;
13816;SDS011;6979;52.116;5.286;2022-12-08T14:59:47;3.23;;;3.03;;
13816;SDS011;6979;52.116;5.286;2022-12-08T15:02:22;4.27;;;3.27;;
13816;SDS011;6979;52.116;5.286;2022-12-08T15:04:57;3.57;;;3.27;;
13816;SDS011;6979;52.116;5.286;2022-12-08T15:07:30;3.20;;;2.90;;
13816;SDS011;6979;52.116;5.286;2022-12-08T15:10:19;3.13;;;2.93;;
13816;SDS011;6979;52.116;5.286;2022-12-08T15:12:56;2.77;;;2.57;;
13816;SDS011;6979;52.116;5.286;2022-12-08T15:15:26;3.13;;;2.93;;
13816;SDS011;6979;52.116;5.286;2022-12-08T15:17:59;3.23;;;3.03;;
13816;SDS011;6979;52.116;5.286;2022-12-08T15:20:31;2.73;;;2.53;;
13816;SDS011;6979;52.116;5.286;2022-12-08T15:23:09;4.07;;;3.77;;
13816;SDS011;6979;52.116;5.286;2022-12-08T15:25:44;3.90;;;3.60;;
13816;SDS011;6979;52.116;5.286;2022-12-08T15:28:11;3.03;;;2.83;;
13816;SDS011;6979;52.116;5.286;2022-12-08T15:30:42;3.57;;;2.70;;
13816;SDS011;6979;52.116;5.286;2022-12-08T15:33:09;2.57;;;2.47;;
13816;SDS011;6979;52.116;5.286;2022-12-08T15:35:36;2.50;;;2.40;;
13816;SDS011;6979;52.116;5.286;2022-12-08T15:38:04;2.47;;;2.37;;
13816;SDS011;6979;52.116;5.286;2022-12-08T15:40:31;3.67;;;2.93;;
13816;SDS011;6979;52.116;5.286;2022-12-08T15:42:58;3.33;;;3.10;;
13816;SDS011;6979;52.116;5.286;2022-12-08T15:45:27;3.07;;;2.87;;
13816;SDS011;6979;52.116;5.286;2022-12-08T15:47:58;3.37;;;3.17;;